New Orleans, LA (70139)

8:24 AM CST on November 22, 2014 (GMT -0600)
Mid City Station | Change Station
CLOSE
Current Station
Personal Weather Station
Location: New Orleans, LA
Elevation: 25 ft
Nearby Weather Stations
Active Advisory: Coastal Flood Advisory

Elev 25 ft 29.98 °N, 90.08 °W | Updated 0 second ago

Partly Cloudy
Partly Cloudy
60.0 °F
Feels Like 60.0 °F
N
7.0
Wind Variable Wind from SSE
Gusts 7.0 mph

Today
High -- | Low -- °F
--% Chance of Precip.
Yesterday
High -- | Low -- °F
Precip. -- in
6:31 AM 5:01 PM
New Moon, 0% visible
Pressure 30.21 in
Visibility 10.0 miles
Clouds Clear
Dew Point 55 °F
Humidity 84%
Rainfall 0.00 in
Snow Depth Not available.
UV 1 out of 12
Pollen 2.60 out of 12
Air Quality Not available.
Flu Activity Not available.
METAR KNEW 221353Z AUTO 09010KT 10SM CLR 15/11 A3023 RMK AO2 SLP229 T01500111 TSNO

More Conditions Fewer Conditions

Pressure 30.21 in
Visibility 10.0 miles
Clouds Clear
Dew Point 55 °F
Humidity 84%
Rainfall 0.00 in
Snow Depth Not available.
UV 1 out of 12
Pollen 2.60 out of 12
Air Quality Not available.
Flu Activity Not available.
METAR KNEW 221353Z AUTO 09010KT 10SM CLR 15/11 A3023 RMK AO2 SLP229 T01500111 TSNO

More Conditions Fewer Conditions

10-Day Weather Forecast

Almanac

Astronomy

Nov. 22, 2014 Rise Set
Actual Time
Civil Twilight
Nautical Twilight
Astronomical Twilight
Moon
Length of Visible Light
Length of Day
Tomorrow will be .
, % of the Moon is Illuminated

Today's Extremes

State Highs State Lows

Community

WunderPhotos

Upload Photos

1,772,820 photos uploaded!

WunderBlogs® & News

Nearby

Air Quality

  Air Quality AQ Index Pollutant
Not available.

Snow Depth

Station Depth Elevation

Earthquake Activity

City Distance Mag. Time & Date
Minimum magnitude displayed is 2.5.

Coastal Water Temperatures

Place Temperature

Nearby Weather Stations